createdAt,value
2023-04-13T00:00:05.189Z,88.31
2023-04-13T00:02:22.617Z,88.23
2023-04-13T00:04:39.879Z,88.15
2023-04-13T00:06:56.864Z,88.20
2023-04-13T00:09:14.111Z,88.34
2023-04-13T00:11:31.443Z,88.90
2023-04-13T00:13:48.570Z,89.17
2023-04-13T00:16:06.467Z,88.05
2023-04-13T00:18:23.516Z,88.62
2023-04-13T00:20:40.456Z,89.36
2023-04-13T00:22:57.387Z,88.88
2023-04-13T00:25:14.492Z,89.06
2023-04-13T00:27:31.513Z,88.95
2023-04-13T00:29:48.803Z,88.42
2023-04-13T00:32:06.091Z,88.99
2023-04-13T00:34:23.020Z,89.27
2023-04-13T00:36:40.301Z,89.51
2023-04-13T00:38:57.622Z,88.37
2023-04-13T00:41:14.547Z,88.77
2023-04-13T00:43:31.573Z,88.79
2023-04-13T00:45:48.762Z,89.01
2023-04-13T00:48:05.953Z,88.82
2023-04-13T00:50:24.056Z,87.56
2023-04-13T00:52:41.270Z,87.48
2023-04-13T00:54:58.583Z,87.28
2023-04-13T00:57:15.683Z,87.42
2023-04-13T00:59:32.898Z,86.76
2023-04-13T01:01:50.002Z,86.50
2023-04-13T01:04:07.397Z,86.95
2023-04-13T01:06:24.737Z,84.97
2023-04-13T01:08:41.989Z,85.02
2023-04-13T01:11:00.334Z,84.11
2023-04-13T01:13:17.358Z,84.18
2023-04-13T01:15:34.616Z,84.08
2023-04-13T01:17:52.692Z,83.66
2023-04-13T01:20:09.944Z,82.62
2023-04-13T01:22:27.397Z,82.47
2023-04-13T01:24:46.397Z,82.06
2023-04-13T01:27:03.537Z,80.59
2023-04-13T01:29:20.879Z,81.29
2023-04-13T01:31:38.153Z,80.63
2023-04-13T01:33:55.370Z,80.65
2023-04-13T01:36:13.242Z,80.09
2023-04-13T01:38:30.539Z,79.12
2023-04-13T01:40:47.482Z,79.98
2023-04-13T01:43:04.528Z,81.36
2023-04-13T01:45:21.565Z,80.48
2023-04-13T01:47:39.012Z,79.10
2023-04-13T01:49:56.339Z,78.83
2023-04-13T01:52:13.635Z,79.33
2023-04-13T01:54:30.496Z,79.85
2023-04-13T01:56:47.810Z,78.93
2023-04-13T01:59:05.143Z,79.72
2023-04-13T02:01:22.444Z,80.10
2023-04-13T02:03:39.511Z,80.40
2023-04-13T02:05:56.839Z,80.25
2023-04-13T02:08:14.107Z,80.43
2023-04-13T02:10:31.328Z,79.98
2023-04-13T02:12:48.348Z,80.86
2023-04-13T02:15:05.277Z,80.90
2023-04-13T02:17:23.680Z,81.35
2023-04-13T02:19:40.622Z,81.80
2023-04-13T02:21:57.913Z,81.83
2023-04-13T02:24:15.832Z,82.30
2023-04-13T02:26:33.784Z,82.01
2023-04-13T02:28:50.788Z,82.38
2023-04-13T02:31:08.040Z,82.28
2023-04-13T02:33:25.147Z,81.91
2023-04-13T02:35:42.189Z,82.19
2023-04-13T02:37:59.100Z,82.16
2023-04-13T02:40:15.985Z,82.76
2023-04-13T02:42:33.266Z,82.83
2023-04-13T02:44:50.539Z,83.04
2023-04-13T02:47:07.561Z,82.73
2023-04-13T02:49:24.611Z,82.67
2023-04-13T02:51:41.656Z,83.89
2023-04-13T02:53:59.080Z,82.85
2023-04-13T02:56:16.194Z,82.92
2023-04-13T02:58:33.484Z,82.93
2023-04-13T03:00:50.871Z,83.20
2023-04-13T03:03:07.881Z,82.49
2023-04-13T03:05:24.872Z,82.38
2023-04-13T03:07:42.172Z,82.31
2023-04-13T03:09:59.240Z,82.52
2023-04-13T03:12:16.554Z,83.05
2023-04-13T03:14:33.585Z,82.59
2023-04-13T03:16:50.868Z,83.24
2023-04-13T03:19:08.993Z,82.54
2023-04-13T03:21:26.128Z,82.69
2023-04-13T03:23:43.423Z,83.46
2023-04-13T03:26:00.703Z,83.15
2023-04-13T03:28:17.986Z,83.46
2023-04-13T03:30:36.120Z,83.45
2023-04-13T03:32:53.210Z,83.38
2023-04-13T03:35:10.496Z,82.48
2023-04-13T03:37:27.370Z,81.53
2023-04-13T03:39:44.589Z,81.83
2023-04-13T03:42:02.636Z,81.60
2023-04-13T03:44:19.544Z,80.94
2023-04-13T03:46:36.800Z,81.21
2023-04-13T03:48:54.025Z,82.01
2023-04-13T03:51:11.072Z,81.68
2023-04-13T03:53:27.968Z,82.12
2023-04-13T03:55:45.033Z,80.23
2023-04-13T03:58:02.056Z,79.88
2023-04-13T04:00:19.056Z,80.10
2023-04-13T04:02:36.428Z,80.49
2023-04-13T04:04:53.763Z,80.89
2023-04-13T04:07:11.774Z,80.35
2023-04-13T04:09:28.711Z,80.40
2023-04-13T04:11:45.659Z,79.81
2023-04-13T04:14:02.930Z,80.34
2023-04-13T04:16:21.042Z,79.80
2023-04-13T04:18:38.221Z,80.38
2023-04-13T04:20:56.590Z,81.42
2023-04-13T04:23:13.555Z,79.32
2023-04-13T04:25:30.478Z,79.52
2023-04-13T04:27:47.734Z,80.06
2023-04-13T04:30:04.700Z,78.39
2023-04-13T04:32:21.802Z,79.10
2023-04-13T04:34:38.798Z,79.33
2023-04-13T04:36:57.037Z,79.19
2023-04-13T04:39:15.262Z,79.38
2023-04-13T04:41:32.258Z,80.05
2023-04-13T04:43:49.220Z,79.84
2023-04-13T04:46:06.369Z,80.16
2023-04-13T04:48:23.684Z,80.73
2023-04-13T04:50:41.948Z,81.07
2023-04-13T04:52:59.284Z,80.95
2023-04-13T04:55:16.302Z,81.92
2023-04-13T04:57:33.476Z,82.76
2023-04-13T04:59:50.723Z,82.88
2023-04-13T05:02:07.783Z,82.53
2023-04-13T05:04:24.668Z,82.08
2023-04-13T05:06:41.803Z,82.31
2023-04-13T05:08:59.370Z,82.77
2023-04-13T05:11:16.562Z,82.78
2023-04-13T05:13:33.490Z,82.57
2023-04-13T05:15:50.808Z,83.38
2023-04-13T05:18:07.873Z,83.79
2023-04-13T05:20:25.956Z,84.00
2023-04-13T05:22:42.982Z,84.01
2023-04-13T05:24:59.914Z,83.60
2023-04-13T05:27:17.127Z,83.27
2023-04-13T05:29:34.138Z,82.87
2023-04-13T05:31:51.181Z,83.00
2023-04-13T05:34:08.212Z,82.94
2023-04-13T05:36:25.488Z,82.38
2023-04-13T05:38:42.798Z,82.49
2023-04-13T05:41:00.059Z,83.27
2023-04-13T05:43:17.337Z,84.10
2023-04-13T05:45:34.297Z,82.86
2023-04-13T05:47:51.616Z,83.83
2023-04-13T05:50:09.668Z,84.27
2023-04-13T05:52:26.984Z,83.65
2023-04-13T05:54:43.873Z,84.21
2023-04-13T05:57:00.839Z,84.20
2023-04-13T05:59:17.805Z,83.96
2023-04-13T06:01:34.844Z,83.84
2023-04-13T06:03:52.078Z,83.52
2023-04-13T06:06:09.546Z,83.16
2023-04-13T06:08:28.856Z,82.81
2023-04-13T06:10:46.193Z,83.62
2023-04-13T06:13:03.384Z,83.41
2023-04-13T06:15:20.437Z,82.40
2023-04-13T06:17:37.400Z,83.25
2023-04-13T06:19:54.742Z,84.13
2023-04-13T06:22:12.042Z,83.58
2023-04-13T06:24:29.342Z,83.58
2023-04-13T06:26:46.571Z,83.12
2023-04-13T06:29:03.604Z,83.18
2023-04-13T06:31:21.598Z,83.86
2023-04-13T06:33:38.961Z,84.54
2023-04-13T06:35:56.283Z,84.11
2023-04-13T06:38:13.578Z,83.43
2023-04-13T06:40:31.045Z,83.75
2023-04-13T06:42:48.281Z,83.83
2023-04-13T06:45:05.169Z,82.78
2023-04-13T06:47:22.447Z,83.27
2023-04-13T06:49:39.689Z,82.85
2023-04-13T06:51:56.793Z,83.00
2023-04-13T06:54:14.029Z,83.42
2023-04-13T06:56:32.845Z,83.02
2023-04-13T06:58:49.883Z,84.14
2023-04-13T07:01:07.128Z,84.11
2023-04-13T07:03:24.436Z,83.62
2023-04-13T07:05:41.571Z,82.62
2023-04-13T07:07:58.812Z,82.99
2023-04-13T07:10:15.771Z,83.07
2023-04-13T07:12:33.993Z,83.69
2023-04-13T07:14:51.226Z,83.09
2023-04-13T07:17:08.827Z,83.26
2023-04-13T07:19:26.948Z,82.63
2023-04-13T07:21:44.919Z,81.29
2023-04-13T07:24:01.894Z,80.88
2023-04-13T07:26:18.913Z,80.61
2023-04-13T07:28:36.211Z,82.22
2023-04-13T07:30:53.181Z,80.48
2023-04-13T07:33:10.459Z,80.85
2023-04-13T07:35:27.475Z,80.28
2023-04-13T07:37:44.412Z,77.98
2023-04-13T07:40:01.488Z,77.59
2023-04-13T07:42:18.499Z,78.17
2023-04-13T07:44:35.553Z,78.74
2023-04-13T07:46:52.626Z,78.68
2023-04-13T07:49:10.679Z,78.21
2023-04-13T07:51:27.964Z,78.48
2023-04-13T07:53:45.240Z,78.90
2023-04-13T07:56:02.635Z,79.01
2023-04-13T07:58:20.842Z,78.97
2023-04-13T08:00:37.857Z,79.74
2023-04-13T08:02:55.053Z,78.60
2023-04-13T08:05:13.722Z,79.44
2023-04-13T08:07:31.049Z,78.13
2023-04-13T08:09:49.086Z,77.21
2023-04-13T08:12:05.962Z,79.43
2023-04-13T08:14:23.259Z,78.26
2023-04-13T08:16:40.653Z,77.90
2023-04-13T08:18:57.872Z,77.35
2023-04-13T08:21:15.356Z,78.86
2023-04-13T08:23:32.604Z,78.08
2023-04-13T08:25:49.600Z,78.78
2023-04-13T08:28:06.482Z,76.75
2023-04-13T08:30:23.498Z,77.01
2023-04-13T08:32:40.652Z,76.68
2023-04-13T08:34:58.888Z,75.49
2023-04-13T08:37:16.119Z,75.96
2023-04-13T08:39:33.110Z,75.08
2023-04-13T08:41:50.167Z,75.37
2023-04-13T08:44:07.150Z,76.19
2023-04-13T08:46:24.229Z,75.00
2023-04-13T08:48:52.798Z,73.93
2023-04-13T08:51:10.831Z,74.94
2023-04-13T08:53:27.856Z,74.13
2023-04-13T08:55:44.832Z,74.58
2023-04-13T08:58:01.861Z,74.35
2023-04-13T09:00:19.031Z,74.49
2023-04-13T09:02:36.411Z,74.20
2023-04-13T09:04:53.829Z,73.41
2023-04-13T09:07:10.776Z,74.61
2023-04-13T09:09:27.830Z,73.84
2023-04-13T09:11:44.750Z,72.98
2023-04-13T09:14:01.690Z,73.01
2023-04-13T09:16:18.718Z,75.00
2023-04-13T09:18:36.064Z,74.24
2023-04-13T09:20:53.266Z,73.61
2023-04-13T09:23:10.167Z,74.36
2023-04-13T09:25:27.122Z,74.29
2023-04-13T09:27:44.230Z,74.52
2023-04-13T09:30:01.472Z,73.10
2023-04-13T09:32:18.688Z,72.76
2023-04-13T09:34:35.697Z,72.98
2023-04-13T09:36:54.613Z,73.30
2023-04-13T09:39:12.476Z,73.39
2023-04-13T09:41:29.714Z,72.69
2023-04-13T09:43:47.066Z,71.80
2023-04-13T09:46:04.405Z,71.68
2023-04-13T09:48:21.444Z,71.88
2023-04-13T09:50:38.428Z,71.90
2023-04-13T09:52:56.720Z,70.33
2023-04-13T09:55:13.807Z,69.92
2023-04-13T09:57:31.049Z,70.46
2023-04-13T09:59:49.575Z,70.63
2023-04-13T10:02:06.659Z,70.76
2023-04-13T10:04:24.126Z,70.39
2023-04-13T10:06:41.435Z,69.26
2023-04-13T10:08:58.430Z,70.12
2023-04-13T10:11:15.627Z,69.06
2023-04-13T10:13:32.623Z,69.77
2023-04-13T10:15:49.959Z,69.47
2023-04-13T10:18:07.576Z,64.61
2023-04-13T10:20:25.716Z,63.40
2023-04-13T10:22:44.335Z,62.78
2023-04-13T10:25:01.472Z,62.11
2023-04-13T10:27:18.630Z,60.99
2023-04-13T10:29:35.660Z,61.85
2023-04-13T10:31:52.795Z,61.05
2023-04-13T10:34:09.724Z,61.74
2023-04-13T10:36:26.692Z,61.06
2023-04-13T10:38:44.853Z,62.34
2023-04-13T10:41:01.943Z,62.18
2023-04-13T10:43:19.256Z,61.96
2023-04-13T10:45:36.256Z,61.72
2023-04-13T10:47:53.516Z,62.45
2023-04-13T10:50:10.538Z,65.49
2023-04-13T10:52:28.460Z,69.21
2023-04-13T10:54:45.634Z,71.05
2023-04-13T10:57:03.535Z,72.44
2023-04-13T10:59:20.570Z,72.01
2023-04-13T11:01:37.546Z,72.43
2023-04-13T11:04:04.524Z,71.58
2023-04-13T11:06:23.803Z,72.19
2023-04-13T11:08:40.867Z,70.44
2023-04-13T11:10:57.878Z,70.28
2023-04-13T11:13:15.022Z,68.71
2023-04-13T11:15:32.899Z,67.20
2023-04-13T11:17:49.903Z,65.58
2023-04-13T11:20:06.829Z,61.79
2023-04-13T11:22:23.958Z,61.48
2023-04-13T11:24:41.231Z,61.61
2023-04-13T11:26:58.106Z,60.73
2023-04-13T11:29:15.370Z,58.24
2023-04-13T11:31:32.305Z,58.18
2023-04-13T11:33:49.409Z,62.16
2023-04-13T11:36:06.807Z,62.69
2023-04-13T11:38:23.699Z,65.92
2023-04-13T11:40:40.647Z,65.34
2023-04-13T11:42:58.801Z,68.13
2023-04-13T11:45:18.519Z,70.17
2023-04-13T11:47:36.864Z,71.06
2023-04-13T11:49:54.183Z,70.91
2023-04-13T11:52:11.120Z,69.92
2023-04-13T11:54:28.441Z,67.82
2023-04-13T11:56:47.108Z,66.78
2023-04-13T11:59:05.436Z,64.83
2023-04-13T12:01:26.200Z,64.61
2023-04-13T12:03:59.067Z,63.31
2023-04-13T12:06:21.500Z,62.66
2023-04-13T12:11:15.460Z,63.50
2023-04-13T12:16:06.230Z,61.99
2023-04-13T12:18:34.279Z,56.84
2023-04-13T12:20:53.888Z,58.65
2023-04-13T12:27:50.341Z,57.11
2023-04-13T12:30:07.373Z,55.89
2023-04-13T12:32:24.653Z,56.39
2023-04-13T12:34:42.214Z,56.38
2023-04-13T12:36:59.173Z,53.88
2023-04-13T12:39:16.225Z,50.90
2023-04-13T12:41:33.380Z,52.76
2023-04-13T12:43:51.297Z,54.03
2023-04-13T12:46:08.682Z,52.90
2023-04-13T12:48:26.014Z,49.51
2023-04-13T12:50:44.258Z,50.87
2023-04-13T12:53:01.141Z,52.16
2023-04-13T12:55:18.057Z,55.01
2023-04-13T12:57:35.348Z,52.94
2023-04-13T12:59:52.683Z,50.95
2023-04-13T13:02:10.068Z,53.30
2023-04-13T13:04:27.170Z,52.86
2023-04-13T13:06:44.473Z,52.70
2023-04-13T13:09:02.033Z,55.03
2023-04-13T13:11:19.092Z,53.15
2023-04-13T13:13:42.324Z,51.56
2023-04-13T13:15:59.636Z,52.18
2023-04-13T13:18:17.655Z,53.31
2023-04-13T13:20:35.093Z,55.43
2023-04-13T13:22:52.173Z,51.92
2023-04-13T13:25:09.067Z,51.87
2023-04-13T13:29:46.972Z,51.07
2023-04-13T13:32:04.060Z,49.51
2023-04-13T13:34:21.026Z,47.73
2023-04-13T13:36:38.310Z,50.70
2023-04-13T13:38:55.502Z,48.60
2023-04-13T13:41:12.755Z,49.27
2023-04-13T13:43:30.791Z,48.13
2023-04-13T13:45:48.182Z,48.76
2023-04-13T13:48:05.156Z,48.64
2023-04-13T13:50:22.296Z,48.04
2023-04-13T13:52:45.888Z,45.84
2023-04-13T13:55:12.723Z,45.51
2023-04-13T13:57:29.800Z,46.13
2023-04-13T13:59:49.373Z,47.79
2023-04-13T14:02:06.594Z,43.79
2023-04-13T14:04:24.015Z,46.13
2023-04-13T14:06:41.111Z,47.88
2023-04-13T14:08:58.372Z,45.64
2023-04-13T14:11:15.791Z,45.90
2023-04-13T14:13:32.892Z,46.68
2023-04-13T14:15:49.996Z,47.87
2023-04-13T14:18:11.224Z,50.61
2023-04-13T14:20:28.870Z,53.14
2023-04-13T14:22:45.981Z,52.06
2023-04-13T14:25:02.988Z,53.95
2023-04-13T14:27:19.900Z,53.20
2023-04-13T14:29:36.968Z,55.09
2023-04-13T14:31:54.245Z,54.31
2023-04-13T14:34:11.461Z,54.79
2023-04-13T14:36:28.735Z,55.03
2023-04-13T14:38:46.062Z,54.79
2023-04-13T14:41:03.131Z,56.11
2023-04-13T14:43:21.232Z,54.45
2023-04-13T14:45:38.301Z,54.41
2023-04-13T14:47:55.355Z,51.71
2023-04-13T14:50:12.570Z,53.88
2023-04-13T14:52:29.870Z,53.44
2023-04-13T14:54:46.944Z,54.57
2023-04-13T14:57:03.942Z,52.64
2023-04-13T14:59:21.190Z,50.90
2023-04-13T15:01:38.500Z,48.34
2023-04-13T15:03:56.621Z,50.92
2023-04-13T15:06:15.079Z,49.10
2023-04-13T15:08:32.074Z,48.58
2023-04-13T15:10:50.337Z,48.53
2023-04-13T15:13:08.456Z,49.03
2023-04-13T15:15:25.541Z,50.20
2023-04-13T15:17:42.791Z,50.44
2023-04-13T15:19:59.779Z,46.36
2023-04-13T15:22:17.047Z,47.92
2023-04-13T15:24:34.297Z,45.18
2023-04-13T15:26:51.441Z,48.26
2023-04-13T15:29:08.752Z,45.55
2023-04-13T15:31:25.843Z,45.23
2023-04-13T15:33:43.100Z,44.85
2023-04-13T15:36:00.203Z,46.04
2023-04-13T15:38:17.154Z,46.38
2023-04-13T15:40:34.445Z,48.77
2023-04-13T15:42:51.491Z,48.62
2023-04-13T15:45:08.468Z,48.80
2023-04-13T15:47:25.820Z,48.79
2023-04-13T15:49:42.867Z,50.88
2023-04-13T15:51:59.953Z,45.55
2023-04-13T15:54:18.088Z,45.01
2023-04-13T15:56:35.020Z,46.05
2023-04-13T15:58:52.222Z,45.88
2023-04-13T16:01:09.388Z,46.92
2023-04-13T16:03:26.664Z,45.54
2023-04-13T16:05:43.902Z,44.96
2023-04-13T16:08:01.786Z,45.46
2023-04-13T16:10:18.833Z,41.90
2023-04-13T16:12:35.816Z,43.66
2023-04-13T16:14:52.744Z,44.92
2023-04-13T16:17:10.664Z,42.37
2023-04-13T16:19:27.601Z,40.15
2023-04-13T16:21:44.970Z,41.74
2023-04-13T16:24:02.063Z,41.49
2023-04-13T16:26:19.122Z,42.60
2023-04-13T16:28:36.373Z,41.65
2023-04-13T16:30:53.841Z,42.60
2023-04-13T16:33:10.850Z,42.94
2023-04-13T16:35:27.925Z,44.67
2023-04-13T16:37:45.996Z,41.14
2023-04-13T16:40:03.321Z,42.78
2023-04-13T16:42:20.362Z,41.32
2023-04-13T16:44:37.471Z,43.14
2023-04-13T16:46:54.449Z,41.51
2023-04-13T16:49:11.883Z,42.83
2023-04-13T16:51:30.144Z,42.58
2023-04-13T16:53:47.188Z,43.30
2023-04-13T16:56:04.481Z,45.97
2023-04-13T16:58:21.549Z,45.24
2023-04-13T17:00:39.517Z,46.69
2023-04-13T17:02:57.542Z,46.77
2023-04-13T17:05:14.935Z,48.06
2023-04-13T17:07:31.897Z,48.52
2023-04-13T17:09:50.089Z,48.46
2023-04-13T17:12:07.180Z,51.57
2023-04-13T17:14:24.223Z,52.63
2023-04-13T17:16:41.614Z,53.19
2023-04-13T17:18:59.943Z,54.32
2023-04-13T17:21:17.437Z,54.92
2023-04-13T17:23:34.428Z,56.47
2023-04-13T17:25:51.765Z,57.86
2023-04-13T17:28:09.119Z,55.70
2023-04-13T17:30:26.144Z,56.16
2023-04-13T17:32:43.246Z,56.87
2023-04-13T17:35:00.378Z,53.26
2023-04-13T17:37:17.396Z,54.75
2023-04-13T17:39:34.516Z,56.11
2023-04-13T17:41:51.546Z,55.11
2023-04-13T17:44:09.782Z,55.74
2023-04-13T17:46:27.185Z,55.43
2023-04-13T17:48:44.253Z,55.51
2023-04-13T17:51:01.334Z,56.63
2023-04-13T17:53:18.616Z,56.70
2023-04-13T17:55:35.662Z,58.18
2023-04-13T17:57:52.754Z,55.77
2023-04-13T18:00:10.030Z,55.66
2023-04-13T18:02:28.380Z,58.23
2023-04-13T18:04:45.393Z,58.13
2023-04-13T18:07:02.472Z,57.98
2023-04-13T18:09:19.767Z,57.82
2023-04-13T18:11:36.825Z,58.46
2023-04-13T18:13:53.861Z,60.11
2023-04-13T18:16:13.964Z,60.89
2023-04-13T18:18:31.735Z,62.61
2023-04-13T18:20:49.180Z,65.57
2023-04-13T18:23:06.505Z,66.39
2023-04-13T18:25:23.550Z,67.17
2023-04-13T18:27:41.819Z,67.15
2023-04-13T18:29:59.794Z,67.22
2023-04-13T18:32:16.879Z,66.11
2023-04-13T18:34:35.641Z,67.61
2023-04-13T18:36:53.097Z,68.38
2023-04-13T18:39:10.087Z,69.83
2023-04-13T18:41:28.371Z,70.98
2023-04-13T18:43:45.597Z,70.64
2023-04-13T18:46:02.663Z,70.73
2023-04-13T18:48:20.039Z,70.65
2023-04-13T18:50:37.599Z,69.47
2023-04-13T18:52:55.668Z,69.38
2023-04-13T18:55:12.893Z,69.14
2023-04-13T18:57:30.028Z,69.55
2023-04-13T18:59:47.367Z,70.23
2023-04-13T19:02:05.397Z,69.41
2023-04-13T19:04:22.574Z,70.26
2023-04-13T19:06:39.740Z,71.30
2023-04-13T19:08:57.053Z,72.23
2023-04-13T19:11:14.305Z,72.78
2023-04-13T19:13:31.317Z,73.22
2023-04-13T19:15:48.440Z,72.88
2023-04-13T19:18:05.460Z,74.04
2023-04-13T19:20:22.623Z,74.72
2023-04-13T19:22:39.935Z,74.47
2023-04-13T19:24:56.993Z,74.99
2023-04-13T19:27:14.035Z,74.64
2023-04-13T19:29:30.972Z,74.99
2023-04-13T19:31:49.339Z,75.75
2023-04-13T19:34:06.401Z,75.13
2023-04-13T19:36:25.889Z,75.11
2023-04-13T19:38:43.327Z,76.65
2023-04-13T19:41:00.205Z,75.73
2023-04-13T19:43:17.201Z,76.59
2023-04-13T19:45:34.222Z,77.30
2023-04-13T19:47:51.577Z,77.23
2023-04-13T19:50:09.849Z,77.34
2023-04-13T19:52:27.093Z,77.63
2023-04-13T19:54:44.242Z,77.41
2023-04-13T19:57:01.253Z,77.67
2023-04-13T19:59:19.532Z,77.83
2023-04-13T20:01:36.476Z,77.84
2023-04-13T20:03:53.606Z,77.80
2023-04-13T20:06:11.074Z,77.24
2023-04-13T20:08:29.287Z,76.68
2023-04-13T20:10:46.357Z,77.07
2023-04-13T20:13:04.345Z,77.15
2023-04-13T20:15:21.630Z,77.90
2023-04-13T20:17:38.698Z,77.99
2023-04-13T20:19:56.097Z,78.22
2023-04-13T20:22:13.140Z,78.26
2023-04-13T20:24:30.415Z,78.31
2023-04-13T20:26:47.718Z,78.81
2023-04-13T20:29:04.648Z,78.76
2023-04-13T20:31:21.767Z,78.78
2023-04-13T20:33:38.819Z,78.74
2023-04-13T20:35:55.849Z,78.92
2023-04-13T20:38:12.949Z,79.12
2023-04-13T20:40:31.186Z,79.21
2023-04-13T20:42:49.393Z,79.44
2023-04-13T20:45:07.612Z,79.58
2023-04-13T20:47:24.652Z,80.07
2023-04-13T20:49:41.893Z,79.96
2023-04-13T20:51:59.400Z,80.50
2023-04-13T20:54:16.425Z,80.28
2023-04-13T20:56:33.499Z,80.36
2023-04-13T20:58:50.730Z,80.21
2023-04-13T21:01:08.019Z,81.20
2023-04-13T21:03:25.481Z,80.43
2023-04-13T21:05:42.813Z,81.38
2023-04-13T21:08:00.136Z,81.56
2023-04-13T21:10:17.115Z,81.75
2023-04-13T21:12:34.447Z,81.37
2023-04-13T21:14:51.406Z,81.44
2023-04-13T21:17:08.504Z,82.58
2023-04-13T21:19:25.849Z,81.73
2023-04-13T21:21:43.128Z,82.24
2023-04-13T21:24:00.641Z,83.12
2023-04-13T21:26:18.049Z,83.29
2023-04-13T21:28:36.083Z,82.76
2023-04-13T21:30:53.196Z,82.90
2023-04-13T21:33:10.526Z,82.48
2023-04-13T21:35:27.632Z,82.73
2023-04-13T21:37:44.988Z,83.51
2023-04-13T21:40:02.292Z,82.39
2023-04-13T21:42:20.876Z,82.88
2023-04-13T21:44:39.524Z,82.01
2023-04-13T21:46:56.760Z,83.41
2023-04-13T21:49:13.733Z,83.16
2023-04-13T21:51:30.740Z,83.18
2023-04-13T21:53:47.985Z,83.02
2023-04-13T21:56:06.267Z,83.04
2023-04-13T21:58:23.576Z,83.42
2023-04-13T22:00:41.647Z,83.51
2023-04-13T22:02:58.784Z,84.16
2023-04-13T22:05:15.992Z,84.26
2023-04-13T22:07:42.479Z,83.41
2023-04-13T22:10:00.513Z,84.01
2023-04-13T22:12:17.575Z,83.67
2023-04-13T22:14:35.619Z,84.60
2023-04-13T22:16:52.571Z,84.10
2023-04-13T22:19:10.876Z,84.11
2023-04-13T22:21:27.946Z,84.56
2023-04-13T22:23:45.948Z,84.83
2023-04-13T22:26:03.191Z,85.15
2023-04-13T22:28:20.488Z,85.16
2023-04-13T22:30:37.506Z,85.73
2023-04-13T22:32:54.874Z,84.83
2023-04-13T22:35:11.846Z,83.44
2023-04-13T22:37:28.901Z,83.95
2023-04-13T22:39:46.174Z,84.81
2023-04-13T22:42:03.575Z,84.85
2023-04-13T22:44:20.891Z,84.36
2023-04-13T22:46:39.216Z,84.67
2023-04-13T22:48:56.559Z,84.58
2023-04-13T22:51:13.670Z,84.40
2023-04-13T22:53:31.746Z,83.99
2023-04-13T22:55:48.820Z,84.29
2023-04-13T22:58:06.068Z,84.68
2023-04-13T23:00:23.712Z,84.42
2023-04-13T23:02:42.168Z,84.86
2023-04-13T23:04:59.715Z,85.18
2023-04-13T23:07:16.934Z,85.86
2023-04-13T23:09:33.964Z,85.80
2023-04-13T23:11:51.271Z,84.72
2023-04-13T23:14:08.614Z,85.82
2023-04-13T23:16:25.631Z,85.64
2023-04-13T23:18:42.695Z,85.50
2023-04-13T23:21:00.292Z,86.51
2023-04-13T23:23:17.647Z,86.31
2023-04-13T23:25:34.674Z,85.60
2023-04-13T23:27:51.899Z,86.46
2023-04-13T23:30:08.814Z,86.40
2023-04-13T23:32:26.235Z,85.86
2023-04-13T23:34:43.299Z,85.75
2023-04-13T23:37:00.393Z,85.98
2023-04-13T23:39:17.293Z,86.12
2023-04-13T23:41:34.622Z,86.66
2023-04-13T23:43:51.651Z,86.65
2023-04-13T23:46:08.552Z,86.53
2023-04-13T23:48:25.618Z,86.31
2023-04-13T23:50:43.004Z,85.98
2023-04-13T23:53:00.062Z,85.61
2023-04-13T23:55:18.327Z,86.03
2023-04-13T23:57:35.280Z,86.37
2023-04-13T23:59:53.378Z,86.31
